createdAt,value
2023-10-17T00:00:29.776Z,100.00
2023-10-17T00:02:56.741Z,100.00
2023-10-17T00:05:24.708Z,100.00
2023-10-17T00:07:51.453Z,100.00
2023-10-17T00:10:21.458Z,100.00
2023-10-17T00:12:54.096Z,100.00
2023-10-17T00:15:30.551Z,100.00
2023-10-17T00:18:05.148Z,100.00
2023-10-17T00:20:38.933Z,100.00
2023-10-17T00:23:07.820Z,100.00
2023-10-17T00:25:34.698Z,100.00
2023-10-17T00:28:01.293Z,100.00
2023-10-17T00:30:31.429Z,100.00
2023-10-17T00:32:58.372Z,100.00
2023-10-17T00:35:27.368Z,100.00
2023-10-17T00:37:58.542Z,100.00
2023-10-17T00:40:43.960Z,100.00
2023-10-17T00:43:13.050Z,100.00
2023-10-17T00:45:39.982Z,100.00
2023-10-17T00:48:18.477Z,100.00
2023-10-17T00:50:51.640Z,100.00
2023-10-17T00:53:19.510Z,100.00
2023-10-17T00:55:52.230Z,100.00
2023-10-17T00:58:19.790Z,100.00
2023-10-17T01:01:06.695Z,100.00
2023-10-17T01:03:33.200Z,100.00
2023-10-17T01:06:14.847Z,100.00
2023-10-17T01:08:45.790Z,100.00
2023-10-17T01:11:29.204Z,100.00
2023-10-17T01:13:58.524Z,100.00
2023-10-17T01:16:28.460Z,100.00
2023-10-17T01:19:01.956Z,100.00
2023-10-17T01:21:28.477Z,100.00
2023-10-17T01:23:56.282Z,100.00
2023-10-17T01:26:25.012Z,100.00
2023-10-17T01:28:54.172Z,100.00
2023-10-17T01:31:24.412Z,100.00
2023-10-17T01:34:01.584Z,100.00
2023-10-17T01:36:28.195Z,100.00
2023-10-17T01:38:56.100Z,100.00
2023-10-17T01:41:22.880Z,100.00
2023-10-17T01:43:50.572Z,100.00
2023-10-17T01:46:29.847Z,100.00
2023-10-17T01:49:01.306Z,100.00
2023-10-17T01:51:28.562Z,100.00
2023-10-17T01:53:55.081Z,100.00
2023-10-17T01:56:30.949Z,100.00
2023-10-17T01:59:00.844Z,100.00
2023-10-17T02:01:27.550Z,100.00
2023-10-17T02:03:54.446Z,100.00
2023-10-17T02:06:23.426Z,100.00
2023-10-17T02:08:49.995Z,100.00
2023-10-17T02:11:25.177Z,100.00
2023-10-17T02:13:57.546Z,100.00
2023-10-17T02:16:25.634Z,100.00
2023-10-17T02:18:52.848Z,100.00
2023-10-17T02:21:21.993Z,100.00
2023-10-17T02:23:52.517Z,100.00
2023-10-17T02:26:23.622Z,100.00
2023-10-17T02:29:00.524Z,100.00
2023-10-17T02:31:34.016Z,100.00
2023-10-17T02:34:00.572Z,100.00
2023-10-17T02:36:27.679Z,100.00
2023-10-17T02:38:54.469Z,100.00
2023-10-17T02:41:21.035Z,100.00
2023-10-17T02:43:48.453Z,100.00
2023-10-17T02:46:15.816Z,100.00
2023-10-17T02:48:48.956Z,100.00
2023-10-17T02:51:24.726Z,100.00
2023-10-17T02:53:53.180Z,100.00
2023-10-17T02:56:23.139Z,100.00
2023-10-17T02:58:52.067Z,100.00
2023-10-17T03:01:19.489Z,100.00
2023-10-17T03:03:52.622Z,100.00
2023-10-17T03:06:19.804Z,100.00
2023-10-17T03:08:52.831Z,100.00
2023-10-17T03:11:36.706Z,100.00
2023-10-17T03:14:23.632Z,100.00
2023-10-17T03:16:53.820Z,100.00
2023-10-17T03:19:28.422Z,100.00
2023-10-17T03:21:56.054Z,100.00
2023-10-17T03:24:40.108Z,100.00
2023-10-17T03:27:08.955Z,100.00
2023-10-17T03:29:36.894Z,100.00
2023-10-17T03:32:12.922Z,100.00
2023-10-17T03:34:45.424Z,100.00
2023-10-17T03:37:39.776Z,100.00
2023-10-17T03:40:36.033Z,100.00
2023-10-17T03:43:12.872Z,100.00
2023-10-17T03:45:54.000Z,100.00
2023-10-17T03:48:24.310Z,100.00
2023-10-17T03:51:09.801Z,100.00
2023-10-17T03:53:48.839Z,100.00
2023-10-17T03:56:36.766Z,100.00
2023-10-17T03:59:15.353Z,100.00
2023-10-17T04:01:46.478Z,100.00
2023-10-17T04:04:25.019Z,100.00
2023-10-17T04:06:57.333Z,100.00
2023-10-17T04:09:29.102Z,100.00
2023-10-17T04:12:04.916Z,100.00
2023-10-17T04:14:51.482Z,100.00
2023-10-17T04:17:24.425Z,100.00
2023-10-17T04:19:52.812Z,100.00
2023-10-17T04:22:22.509Z,100.00
2023-10-17T04:24:50.948Z,100.00
2023-10-17T04:27:18.080Z,100.00
2023-10-17T04:29:51.158Z,100.00
2023-10-17T04:32:18.864Z,100.00
2023-10-17T04:34:48.276Z,100.00
2023-10-17T04:37:25.560Z,100.00
2023-10-17T04:40:18.999Z,100.00
2023-10-17T04:42:56.577Z,100.00
2023-10-17T04:45:25.617Z,100.00
2023-10-17T04:48:24.826Z,100.00
2023-10-17T04:50:59.424Z,100.00
2023-10-17T04:53:36.889Z,100.00
2023-10-17T04:56:12.991Z,100.00
2023-10-17T04:58:58.658Z,100.00
2023-10-17T05:01:41.310Z,100.00
2023-10-17T05:04:22.223Z,100.00
2023-10-17T05:06:57.826Z,100.00
2023-10-17T05:09:45.983Z,100.00
2023-10-17T05:12:38.775Z,100.00
2023-10-17T05:15:24.511Z,100.00
2023-10-17T05:18:09.551Z,100.00
2023-10-17T05:20:54.894Z,100.00
2023-10-17T05:23:40.142Z,100.00
2023-10-17T05:26:26.579Z,100.00
2023-10-17T05:29:13.242Z,100.00
2023-10-17T05:32:00.495Z,100.00
2023-10-17T05:34:48.861Z,100.00
2023-10-17T05:37:33.880Z,100.00
2023-10-17T05:40:20.678Z,100.00
2023-10-17T05:43:06.912Z,100.00
2023-10-17T05:45:52.590Z,100.00
2023-10-17T05:48:38.132Z,100.00
2023-10-17T05:51:23.977Z,100.00
2023-10-17T05:54:37.007Z,100.00
2023-10-17T05:57:18.044Z,100.00
2023-10-17T06:00:03.183Z,100.00
2023-10-17T06:02:48.484Z,100.00
2023-10-17T06:05:33.640Z,100.00
2023-10-17T06:08:18.590Z,100.00
2023-10-17T06:11:03.998Z,100.00
2023-10-17T06:13:58.677Z,100.00
2023-10-17T06:16:43.848Z,100.00
2023-10-17T06:19:16.729Z,100.00
2023-10-17T06:22:01.732Z,100.00
2023-10-17T06:24:45.151Z,100.00
2023-10-17T06:27:15.510Z,100.00
2023-10-17T06:29:41.922Z,100.00
2023-10-17T06:32:18.109Z,100.00
2023-10-17T06:34:46.303Z,100.00
2023-10-17T06:37:21.465Z,100.00
2023-10-17T06:39:51.140Z,100.00
2023-10-17T06:42:33.979Z,100.00
2023-10-17T06:45:08.274Z,100.00
2023-10-17T06:47:48.417Z,100.00
2023-10-17T06:50:16.153Z,100.00
2023-10-17T06:52:52.312Z,100.00
2023-10-17T06:55:30.262Z,100.00
2023-10-17T06:57:59.252Z,100.00
2023-10-17T07:00:29.224Z,100.00
2023-10-17T07:02:58.361Z,100.00
2023-10-17T07:05:25.915Z,100.00
2023-10-17T07:07:55.644Z,100.00
2023-10-17T07:10:25.020Z,100.00
2023-10-17T07:13:29.190Z,100.00
2023-10-17T07:15:56.046Z,100.00
2023-10-17T07:18:45.340Z,100.00
2023-10-17T07:21:15.592Z,100.00
2023-10-17T07:23:43.605Z,100.00
2023-10-17T07:26:29.808Z,100.00
2023-10-17T07:28:56.969Z,100.00
2023-10-17T07:31:24.432Z,100.00
2023-10-17T07:34:08.420Z,100.00
2023-10-17T07:36:36.561Z,100.00
2023-10-17T07:39:17.495Z,100.00
2023-10-17T07:41:54.142Z,100.00
2023-10-17T07:44:27.174Z,100.00
2023-10-17T07:47:09.444Z,100.00
2023-10-17T07:49:42.419Z,100.00
2023-10-17T07:52:16.986Z,100.00
2023-10-17T07:54:47.564Z,100.00
2023-10-17T07:57:24.497Z,100.00
2023-10-17T07:59:59.928Z,100.00
2023-10-17T08:02:32.067Z,100.00
2023-10-17T08:05:18.165Z,100.00
2023-10-17T08:07:50.582Z,100.00
2023-10-17T08:10:36.907Z,100.00
2023-10-17T08:13:03.921Z,100.00
2023-10-17T08:15:53.999Z,100.00
2023-10-17T08:18:24.646Z,98.10
2023-10-17T08:21:00.512Z,94.97
2023-10-17T08:23:27.538Z,92.84
2023-10-17T08:26:01.619Z,91.62
2023-10-17T08:28:47.668Z,89.53
2023-10-17T08:31:24.544Z,93.05
2023-10-17T08:34:05.797Z,95.86
2023-10-17T08:36:42.702Z,94.50
2023-10-17T08:39:29.454Z,85.94
2023-10-17T08:42:03.570Z,85.07
2023-10-17T08:44:33.379Z,84.68
2023-10-17T08:47:00.902Z,88.53
2023-10-17T08:49:33.059Z,77.62
2023-10-17T08:52:00.197Z,83.97
2023-10-17T08:54:30.527Z,83.16
2023-10-17T08:57:04.384Z,82.96
2023-10-17T08:59:52.064Z,82.80
2023-10-17T09:02:25.285Z,78.44
2023-10-17T09:04:51.868Z,74.09
2023-10-17T09:07:33.071Z,70.17
2023-10-17T09:10:06.214Z,72.93
2023-10-17T09:12:47.313Z,75.08
2023-10-17T09:15:33.937Z,75.04
2023-10-17T09:18:22.349Z,69.69
2023-10-17T09:20:51.286Z,67.27
2023-10-17T09:23:24.654Z,69.68
2023-10-17T09:26:00.091Z,68.24
2023-10-17T09:28:27.345Z,65.19
2023-10-17T09:31:06.205Z,65.82
2023-10-17T09:33:34.058Z,78.26
2023-10-17T09:36:05.448Z,67.52
2023-10-17T09:38:35.840Z,70.98
2023-10-17T09:41:15.918Z,70.48
2023-10-17T09:43:46.668Z,63.73
2023-10-17T09:46:14.040Z,69.19
2023-10-17T09:48:47.189Z,70.63
2023-10-17T09:51:23.016Z,64.37
2023-10-17T09:53:59.946Z,66.25
2023-10-17T09:56:38.399Z,62.54
2023-10-17T09:59:08.215Z,60.06
2023-10-17T10:01:36.460Z,60.42
2023-10-17T10:04:03.791Z,58.18
2023-10-17T10:06:32.289Z,58.92
2023-10-17T10:09:02.225Z,56.76
2023-10-17T10:11:50.700Z,58.32
2023-10-17T10:14:51.135Z,57.31
2023-10-17T10:17:18.569Z,59.68
2023-10-17T10:19:45.130Z,66.18
2023-10-17T10:22:13.918Z,64.66
2023-10-17T10:24:42.267Z,62.08
2023-10-17T10:27:28.394Z,62.94
2023-10-17T10:30:19.511Z,55.76
2023-10-17T10:32:47.715Z,59.63
2023-10-17T10:35:16.512Z,64.62
2023-10-17T10:37:50.984Z,68.66
2023-10-17T10:40:33.354Z,70.93
2023-10-17T10:43:02.623Z,69.88
2023-10-17T10:45:37.718Z,72.23
2023-10-17T10:48:13.366Z,65.07
2023-10-17T10:50:42.337Z,70.88
2023-10-17T10:53:24.362Z,60.55
2023-10-17T10:56:02.563Z,65.86
2023-10-17T10:58:30.977Z,67.01
2023-10-17T11:01:03.746Z,60.50
2023-10-17T11:03:33.668Z,61.05
2023-10-17T11:06:05.309Z,64.01
2023-10-17T11:08:38.867Z,62.76
2023-10-17T11:11:06.692Z,66.35
2023-10-17T11:13:43.738Z,63.18
2023-10-17T11:16:10.644Z,58.62
2023-10-17T11:18:41.184Z,60.66
2023-10-17T11:21:10.972Z,67.54
2023-10-17T11:23:42.864Z,61.23
2023-10-17T11:26:27.577Z,61.25
2023-10-17T11:28:55.408Z,62.56
2023-10-17T11:31:26.515Z,60.89
2023-10-17T11:34:04.729Z,59.59
2023-10-17T11:36:53.586Z,60.43
2023-10-17T11:39:21.528Z,64.06
2023-10-17T11:41:54.480Z,66.94
2023-10-17T11:44:26.351Z,60.73
2023-10-17T11:46:57.419Z,64.95
2023-10-17T11:49:31.883Z,69.87
2023-10-17T11:52:10.889Z,64.58
2023-10-17T11:55:14.582Z,66.76
2023-10-17T11:57:42.099Z,66.36
2023-10-17T12:00:17.895Z,68.15
2023-10-17T12:02:51.314Z,66.42
2023-10-17T12:05:23.461Z,70.97
2023-10-17T12:07:55.190Z,70.56
2023-10-17T12:10:22.935Z,68.79
2023-10-17T12:12:53.525Z,67.13
2023-10-17T12:15:23.185Z,57.65
2023-10-17T12:17:51.373Z,62.57
2023-10-17T12:20:19.033Z,61.33
2023-10-17T12:22:45.724Z,58.11
2023-10-17T12:25:17.441Z,62.79
2023-10-17T12:27:47.664Z,59.12
2023-10-17T12:30:23.688Z,56.87
2023-10-17T12:32:50.416Z,55.44
2023-10-17T12:35:18.139Z,58.66
2023-10-17T12:37:45.096Z,58.38
2023-10-17T12:40:27.315Z,58.29
2023-10-17T12:42:57.065Z,61.66
2023-10-17T12:45:23.862Z,60.45
2023-10-17T12:47:51.483Z,62.91
2023-10-17T12:50:19.499Z,67.36
2023-10-17T12:52:46.505Z,58.92
2023-10-17T12:55:13.090Z,64.41
2023-10-17T12:57:40.677Z,60.81
2023-10-17T13:00:12.199Z,60.62
2023-10-17T13:02:42.408Z,67.13
2023-10-17T13:05:10.795Z,64.69
2023-10-17T13:07:38.580Z,63.50
2023-10-17T13:10:13.850Z,62.80
2023-10-17T13:12:42.279Z,65.32
2023-10-17T13:15:10.426Z,61.17
2023-10-17T13:17:37.356Z,61.43
2023-10-17T13:20:09.706Z,61.56
2023-10-17T13:22:48.543Z,65.23
2023-10-17T13:25:15.702Z,59.25
2023-10-17T13:27:42.705Z,62.49
2023-10-17T13:30:09.681Z,66.59
2023-10-17T13:32:36.266Z,61.59
2023-10-17T13:35:03.090Z,63.57
2023-10-17T13:37:29.685Z,60.89
2023-10-17T13:39:57.026Z,62.35
2023-10-17T13:42:25.016Z,59.97
2023-10-17T13:44:51.958Z,60.91
2023-10-17T13:47:22.138Z,61.28
2023-10-17T13:49:48.644Z,59.33
2023-10-17T13:52:18.904Z,58.04
2023-10-17T13:54:46.492Z,63.46
2023-10-17T13:57:13.864Z,57.87
2023-10-17T13:59:40.380Z,60.73
2023-10-17T14:02:07.764Z,58.82
2023-10-17T14:04:37.929Z,58.44
2023-10-17T14:07:08.102Z,61.64
2023-10-17T14:09:35.146Z,58.33
2023-10-17T14:12:01.869Z,63.14
2023-10-17T14:14:33.154Z,63.49
2023-10-17T14:16:59.992Z,63.43
2023-10-17T14:19:32.793Z,65.02
2023-10-17T14:22:14.585Z,64.04
2023-10-17T14:24:52.249Z,62.23
2023-10-17T14:27:24.485Z,61.33
2023-10-17T14:29:51.746Z,65.43
2023-10-17T14:32:19.616Z,66.93
2023-10-17T14:34:46.106Z,67.56
2023-10-17T14:37:15.168Z,68.43
2023-10-17T14:39:43.227Z,71.51
2023-10-17T14:42:11.878Z,72.20
2023-10-17T14:44:38.470Z,73.01
2023-10-17T14:47:07.301Z,72.92
2023-10-17T14:49:35.165Z,73.68
2023-10-17T14:52:01.807Z,73.05
2023-10-17T14:54:28.398Z,73.61
2023-10-17T14:56:55.527Z,71.27
2023-10-17T14:59:22.347Z,74.66
2023-10-17T15:01:49.016Z,76.14
2023-10-17T15:04:15.790Z,74.98
2023-10-17T15:06:42.887Z,69.31
2023-10-17T15:09:09.763Z,71.04
2023-10-17T15:11:36.387Z,76.89
2023-10-17T15:14:05.384Z,76.13
2023-10-17T15:16:32.845Z,73.93
2023-10-17T15:19:00.831Z,72.81
2023-10-17T15:21:36.941Z,75.58
2023-10-17T15:24:17.871Z,75.84
2023-10-17T15:26:44.457Z,77.20
2023-10-17T15:29:13.469Z,79.72
2023-10-17T15:31:40.333Z,80.06
2023-10-17T15:34:07.036Z,79.85
2023-10-17T15:36:34.130Z,80.40
2023-10-17T15:39:02.929Z,81.93
2023-10-17T15:41:29.502Z,83.15
2023-10-17T15:43:56.052Z,84.10
2023-10-17T15:46:25.877Z,84.99
2023-10-17T15:48:52.934Z,85.75
2023-10-17T15:51:21.252Z,88.32
2023-10-17T15:53:48.204Z,89.94
2023-10-17T15:56:15.186Z,91.63
2023-10-17T15:58:43.980Z,93.19
2023-10-17T16:01:14.630Z,91.57
2023-10-17T16:03:44.104Z,93.91
2023-10-17T16:06:11.286Z,94.18
2023-10-17T16:08:38.056Z,97.15
2023-10-17T16:11:04.900Z,99.05
2023-10-17T16:13:32.706Z,100.00
2023-10-17T16:16:00.624Z,100.00
2023-10-17T16:18:28.207Z,100.00
2023-10-17T16:20:55.042Z,100.00
2023-10-17T16:23:21.882Z,100.00
2023-10-17T16:25:53.723Z,100.00
2023-10-17T16:28:20.960Z,100.00
2023-10-17T16:30:49.194Z,100.00
2023-10-17T16:33:16.605Z,100.00
2023-10-17T16:35:45.591Z,100.00
2023-10-17T16:38:12.984Z,100.00
2023-10-17T16:40:44.931Z,100.00
2023-10-17T16:43:13.466Z,100.00
2023-10-17T16:45:47.696Z,100.00
2023-10-17T16:48:14.682Z,100.00
2023-10-17T16:50:48.718Z,100.00
2023-10-17T16:53:16.519Z,100.00
2023-10-17T16:55:43.379Z,100.00
2023-10-17T16:58:09.962Z,100.00
2023-10-17T17:00:37.466Z,100.00
2023-10-17T17:03:06.539Z,100.00
2023-10-17T17:05:33.573Z,100.00
2023-10-17T17:08:00.225Z,100.00
2023-10-17T17:10:26.997Z,100.00
2023-10-17T17:12:53.638Z,100.00
2023-10-17T17:15:20.306Z,100.00
2023-10-17T17:17:46.997Z,100.00
2023-10-17T17:20:16.285Z,100.00
2023-10-17T17:22:46.367Z,100.00
2023-10-17T17:25:18.908Z,100.00
2023-10-17T17:27:45.725Z,100.00
2023-10-17T17:30:20.582Z,100.00
2023-10-17T17:32:47.407Z,100.00
2023-10-17T17:35:14.083Z,100.00
2023-10-17T17:37:40.841Z,100.00
2023-10-17T17:40:08.689Z,100.00
2023-10-17T17:42:35.526Z,100.00
2023-10-17T17:45:05.276Z,100.00
2023-10-17T17:47:33.257Z,100.00
2023-10-17T17:49:59.857Z,100.00
2023-10-17T17:52:26.441Z,100.00
2023-10-17T17:54:53.291Z,100.00
2023-10-17T17:57:21.923Z,100.00
2023-10-17T17:59:50.141Z,100.00
2023-10-17T18:02:20.963Z,100.00
2023-10-17T18:04:47.687Z,100.00
2023-10-17T18:07:14.309Z,100.00
2023-10-17T18:09:41.010Z,100.00
2023-10-17T18:12:07.785Z,100.00
2023-10-17T18:14:36.823Z,100.00
2023-10-17T18:17:05.569Z,100.00
2023-10-17T18:19:32.750Z,100.00
2023-10-17T18:21:59.254Z,100.00
2023-10-17T18:24:25.935Z,100.00
2023-10-17T18:26:52.413Z,100.00
2023-10-17T18:29:21.482Z,100.00
2023-10-17T18:31:49.592Z,100.00
2023-10-17T18:34:16.154Z,100.00
2023-10-17T18:36:42.660Z,100.00
2023-10-17T18:39:09.771Z,100.00
2023-10-17T18:41:41.326Z,100.00
2023-10-17T18:44:08.651Z,100.00
2023-10-17T18:46:36.116Z,100.00
2023-10-17T18:49:04.342Z,100.00
2023-10-17T18:51:34.898Z,100.00
2023-10-17T18:54:01.929Z,100.00
2023-10-17T18:56:28.418Z,100.00
2023-10-17T18:58:54.940Z,100.00
2023-10-17T19:01:21.772Z,100.00
2023-10-17T19:03:48.481Z,100.00
2023-10-17T19:06:15.211Z,100.00
2023-10-17T19:08:43.351Z,100.00
2023-10-17T19:11:11.152Z,100.00
2023-10-17T19:13:41.259Z,100.00
2023-10-17T19:16:09.950Z,100.00
2023-10-17T19:18:37.298Z,100.00
2023-10-17T19:21:05.404Z,100.00
2023-10-17T19:23:31.953Z,100.00
2023-10-17T19:25:59.172Z,100.00
2023-10-17T19:28:26.053Z,100.00
2023-10-17T19:30:52.626Z,100.00
2023-10-17T19:33:19.632Z,100.00
2023-10-17T19:35:46.051Z,100.00
2023-10-17T19:38:14.438Z,100.00
2023-10-17T19:40:40.984Z,100.00
2023-10-17T19:43:08.718Z,100.00
2023-10-17T19:45:35.678Z,100.00
2023-10-17T19:48:03.869Z,100.00
2023-10-17T19:50:30.634Z,100.00
2023-10-17T19:52:57.675Z,100.00
2023-10-17T19:55:24.762Z,100.00
2023-10-17T19:57:53.843Z,100.00
2023-10-17T20:00:24.003Z,100.00
2023-10-17T20:02:51.793Z,100.00
2023-10-17T20:05:18.458Z,100.00
2023-10-17T20:07:48.952Z,100.00
2023-10-17T20:10:15.650Z,100.00
2023-10-17T20:12:42.648Z,100.00
2023-10-17T20:15:11.638Z,100.00
2023-10-17T20:17:38.917Z,100.00
2023-10-17T20:20:10.744Z,100.00
2023-10-17T20:22:38.221Z,100.00
2023-10-17T20:25:05.630Z,100.00
2023-10-17T20:27:32.501Z,100.00
2023-10-17T20:30:01.752Z,100.00
2023-10-17T20:32:29.340Z,100.00
2023-10-17T20:34:56.735Z,100.00
2023-10-17T20:37:23.300Z,100.00
2023-10-17T20:39:54.246Z,100.00
2023-10-17T20:42:20.863Z,100.00
2023-10-17T20:44:47.390Z,100.00
2023-10-17T20:47:13.919Z,100.00
2023-10-17T20:49:40.571Z,100.00
2023-10-17T20:52:13.624Z,100.00
2023-10-17T20:54:43.862Z,100.00
2023-10-17T20:57:11.064Z,100.00
2023-10-17T20:59:38.115Z,100.00
2023-10-17T21:02:05.035Z,100.00
2023-10-17T21:04:31.880Z,100.00
2023-10-17T21:07:00.509Z,100.00
2023-10-17T21:09:27.808Z,100.00
2023-10-17T21:11:54.958Z,100.00
2023-10-17T21:14:21.788Z,100.00
2023-10-17T21:16:54.344Z,100.00
2023-10-17T21:19:23.149Z,100.00
2023-10-17T21:21:49.912Z,100.00
2023-10-17T21:24:16.621Z,100.00
2023-10-17T21:26:43.656Z,100.00
2023-10-17T21:29:11.856Z,100.00
2023-10-17T21:31:39.191Z,100.00
2023-10-17T21:34:09.522Z,100.00
2023-10-17T21:36:36.759Z,100.00
2023-10-17T21:39:03.739Z,100.00
2023-10-17T21:41:30.270Z,100.00
2023-10-17T21:43:56.864Z,100.00
2023-10-17T21:46:23.435Z,100.00
2023-10-17T21:48:51.246Z,100.00
2023-10-17T21:51:20.703Z,100.00
2023-10-17T21:53:47.964Z,100.00
2023-10-17T21:56:16.206Z,100.00
2023-10-17T21:58:48.100Z,100.00
2023-10-17T22:01:23.084Z,100.00
2023-10-17T22:03:50.986Z,100.00
2023-10-17T22:06:19.769Z,100.00
2023-10-17T22:08:46.732Z,100.00
2023-10-17T22:11:17.275Z,100.00
2023-10-17T22:13:46.295Z,100.00
2023-10-17T22:16:15.159Z,100.00
2023-10-17T22:18:43.261Z,100.00
2023-10-17T22:21:13.788Z,100.00
2023-10-17T22:23:43.622Z,100.00
2023-10-17T22:26:10.990Z,100.00
2023-10-17T22:28:38.099Z,100.00
2023-10-17T22:31:05.119Z,100.00
2023-10-17T22:33:33.068Z,100.00
2023-10-17T22:35:59.636Z,100.00
2023-10-17T22:38:26.296Z,100.00
2023-10-17T22:40:54.623Z,100.00
2023-10-17T22:43:21.115Z,100.00
2023-10-17T22:45:48.829Z,100.00
2023-10-17T22:48:15.853Z,100.00
2023-10-17T22:50:45.371Z,100.00
2023-10-17T22:53:14.002Z,100.00
2023-10-17T22:55:41.565Z,100.00
2023-10-17T22:58:08.882Z,100.00
2023-10-17T23:00:38.014Z,100.00
2023-10-17T23:03:09.634Z,100.00
2023-10-17T23:05:36.483Z,100.00
2023-10-17T23:08:04.658Z,100.00
2023-10-17T23:10:31.260Z,100.00
2023-10-17T23:13:01.129Z,100.00
2023-10-17T23:15:27.841Z,100.00
2023-10-17T23:17:54.412Z,100.00
2023-10-17T23:20:21.670Z,100.00
2023-10-17T23:22:49.825Z,100.00
2023-10-17T23:25:18.075Z,100.00
2023-10-17T23:27:46.438Z,100.00
2023-10-17T23:30:19.866Z,100.00
2023-10-17T23:32:47.598Z,100.00
2023-10-17T23:35:16.413Z,100.00
2023-10-17T23:37:46.555Z,100.00
2023-10-17T23:40:15.627Z,100.00
2023-10-17T23:42:42.783Z,100.00
2023-10-17T23:45:10.452Z,100.00
2023-10-17T23:47:38.231Z,100.00
2023-10-17T23:50:17.156Z,100.00
2023-10-17T23:52:45.442Z,100.00
2023-10-17T23:55:13.014Z,100.00
2023-10-17T23:57:40.073Z,100.00
